sensor_id;sensor_type;location;lat;lon;timestamp;temperature;humidity
38456;DHT22;24237;50.106;20.014;2023-04-15T00:01:19;13.40;99.90
38456;DHT22;24237;50.106;20.014;2023-04-15T00:03:45;13.20;99.90
38456;DHT22;24237;50.106;20.014;2023-04-15T00:06:12;13.20;99.90
38456;DHT22;24237;50.106;20.014;2023-04-15T00:08:38;13.50;99.90
38456;DHT22;24237;50.106;20.014;2023-04-15T00:11:04;13.60;99.90
38456;DHT22;24237;50.106;20.014;2023-04-15T00:13:30;13.80;99.90
38456;DHT22;24237;50.106;20.014;2023-04-15T00:15:57;13.60;99.90
38456;DHT22;24237;50.106;20.014;2023-04-15T00:18:23;13.40;99.90
38456;DHT22;24237;50.106;20.014;2023-04-15T00:20:49;13.60;99.90
38456;DHT22;24237;50.106;20.014;2023-04-15T00:23:14;13.50;99.90
38456;DHT22;24237;50.106;20.014;2023-04-15T00:25:40;13.40;99.90
38456;DHT22;24237;50.106;20.014;2023-04-15T00:28:06;13.30;99.90
38456;DHT22;24237;50.106;20.014;2023-04-15T00:30:32;13.30;99.90
38456;DHT22;24237;50.106;20.014;2023-04-15T00:33:00;13.40;99.90
38456;DHT22;24237;50.106;20.014;2023-04-15T00:35:26;13.30;99.90
38456;DHT22;24237;50.106;20.014;2023-04-15T00:37:52;13.20;99.90
38456;DHT22;24237;50.106;20.014;2023-04-15T00:40:20;13.10;99.90
38456;DHT22;24237;50.106;20.014;2023-04-15T00:42:46;13.10;99.90
38456;DHT22;24237;50.106;20.014;2023-04-15T00:45:11;13.00;99.90
38456;DHT22;24237;50.106;20.014;2023-04-15T00:47:40;13.20;99.90
38456;DHT22;24237;50.106;20.014;2023-04-15T00:50:06;13.40;99.90
38456;DHT22;24237;50.106;20.014;2023-04-15T00:52:32;13.50;99.90
38456;DHT22;24237;50.106;20.014;2023-04-15T00:54:59;13.40;99.90
38456;DHT22;24237;50.106;20.014;2023-04-15T00:57:25;13.40;99.90
38456;DHT22;24237;50.106;20.014;2023-04-15T00:59:52;13.20;99.90
38456;DHT22;24237;50.106;20.014;2023-04-15T01:02:19;13.20;99.90
38456;DHT22;24237;50.106;20.014;2023-04-15T01:04:46;13.50;99.90
38456;DHT22;24237;50.106;20.014;2023-04-15T01:07:12;13.60;99.90
38456;DHT22;24237;50.106;20.014;2023-04-15T01:09:37;13.50;99.90
38456;DHT22;24237;50.106;20.014;2023-04-15T01:12:04;13.20;99.90
38456;DHT22;24237;50.106;20.014;2023-04-15T01:14:30;13.20;99.90
38456;DHT22;24237;50.106;20.014;2023-04-15T01:16:56;13.20;99.90
38456;DHT22;24237;50.106;20.014;2023-04-15T01:19:22;13.30;99.90
38456;DHT22;24237;50.106;20.014;2023-04-15T01:21:47;13.20;99.90
38456;DHT22;24237;50.106;20.014;2023-04-15T01:24:14;13.10;99.90
38456;DHT22;24237;50.106;20.014;2023-04-15T01:26:42;13.00;99.90
38456;DHT22;24237;50.106;20.014;2023-04-15T01:29:08;13.00;99.90
38456;DHT22;24237;50.106;20.014;2023-04-15T01:31:34;12.90;99.90
38456;DHT22;24237;50.106;20.014;2023-04-15T01:34:00;12.90;99.90
38456;DHT22;24237;50.106;20.014;2023-04-15T01:36:25;12.90;99.90
38456;DHT22;24237;50.106;20.014;2023-04-15T01:38:51;13.20;99.90
38456;DHT22;24237;50.106;20.014;2023-04-15T01:41:26;13.10;99.90
38456;DHT22;24237;50.106;20.014;2023-04-15T01:43:52;13.30;99.90
38456;DHT22;24237;50.106;20.014;2023-04-15T01:46:18;13.20;99.90
38456;DHT22;24237;50.106;20.014;2023-04-15T01:48:44;13.30;99.90
38456;DHT22;24237;50.106;20.014;2023-04-15T01:51:10;13.20;99.90
38456;DHT22;24237;50.106;20.014;2023-04-15T01:53:36;13.20;99.90
38456;DHT22;24237;50.106;20.014;2023-04-15T01:56:02;13.10;99.90
38456;DHT22;24237;50.106;20.014;2023-04-15T01:58:28;13.10;99.90
38456;DHT22;24237;50.106;20.014;2023-04-15T02:00:53;13.00;99.90
38456;DHT22;24237;50.106;20.014;2023-04-15T02:03:19;12.90;99.90
38456;DHT22;24237;50.106;20.014;2023-04-15T02:05:44;12.80;99.90
38456;DHT22;24237;50.106;20.014;2023-04-15T02:08:10;12.80;99.90
38456;DHT22;24237;50.106;20.014;2023-04-15T02:10:37;12.80;99.90
38456;DHT22;24237;50.106;20.014;2023-04-15T02:13:03;12.70;99.90
38456;DHT22;24237;50.106;20.014;2023-04-15T02:15:29;12.90;99.90
38456;DHT22;24237;50.106;20.014;2023-04-15T02:17:55;13.00;99.90
38456;DHT22;24237;50.106;20.014;2023-04-15T02:20:20;12.80;99.90
38456;DHT22;24237;50.106;20.014;2023-04-15T02:22:47;12.60;99.90
38456;DHT22;24237;50.106;20.014;2023-04-15T02:25:13;12.40;99.90
38456;DHT22;24237;50.106;20.014;2023-04-15T02:27:39;12.40;99.90
38456;DHT22;24237;50.106;20.014;2023-04-15T02:30:05;12.30;99.90
38456;DHT22;24237;50.106;20.014;2023-04-15T02:32:32;12.30;99.90
38456;DHT22;24237;50.106;20.014;2023-04-15T02:35:07;12.50;99.90
38456;DHT22;24237;50.106;20.014;2023-04-15T02:37:35;12.60;99.90
38456;DHT22;24237;50.106;20.014;2023-04-15T02:40:07;12.30;99.90
38456;DHT22;24237;50.106;20.014;2023-04-15T02:42:33;12.20;99.90
38456;DHT22;24237;50.106;20.014;2023-04-15T02:44:59;12.20;99.90
38456;DHT22;24237;50.106;20.014;2023-04-15T02:47:25;12.10;99.90
38456;DHT22;24237;50.106;20.014;2023-04-15T02:49:51;12.20;99.90
38456;DHT22;24237;50.106;20.014;2023-04-15T02:52:16;12.30;99.90
38456;DHT22;24237;50.106;20.014;2023-04-15T02:54:42;12.20;99.90
38456;DHT22;24237;50.106;20.014;2023-04-15T02:57:08;12.40;99.90
38456;DHT22;24237;50.106;20.014;2023-04-15T02:59:36;12.50;99.90
38456;DHT22;24237;50.106;20.014;2023-04-15T03:02:01;12.40;99.90
38456;DHT22;24237;50.106;20.014;2023-04-15T03:04:27;12.10;99.90
38456;DHT22;24237;50.106;20.014;2023-04-15T03:06:54;11.90;99.90
38456;DHT22;24237;50.106;20.014;2023-04-15T03:09:21;11.90;99.90
38456;DHT22;24237;50.106;20.014;2023-04-15T03:11:47;11.90;99.90
38456;DHT22;24237;50.106;20.014;2023-04-15T03:14:12;12.00;99.90
38456;DHT22;24237;50.106;20.014;2023-04-15T03:16:38;12.00;99.90
38456;DHT22;24237;50.106;20.014;2023-04-15T03:19:04;11.80;99.90
38456;DHT22;24237;50.106;20.014;2023-04-15T03:21:30;11.70;99.90
38456;DHT22;24237;50.106;20.014;2023-04-15T03:23:56;11.60;99.90
38456;DHT22;24237;50.106;20.014;2023-04-15T03:26:29;11.50;99.90
38456;DHT22;24237;50.106;20.014;2023-04-15T03:28:56;11.40;99.90
38456;DHT22;24237;50.106;20.014;2023-04-15T03:31:22;11.40;99.90
38456;DHT22;24237;50.106;20.014;2023-04-15T03:33:48;11.30;99.90
38456;DHT22;24237;50.106;20.014;2023-04-15T03:36:14;11.30;99.90
38456;DHT22;24237;50.106;20.014;2023-04-15T03:38:40;11.30;99.90
38456;DHT22;24237;50.106;20.014;2023-04-15T03:41:06;11.20;99.90
38456;DHT22;24237;50.106;20.014;2023-04-15T03:43:32;11.20;99.90
38456;DHT22;24237;50.106;20.014;2023-04-15T03:45:57;11.20;99.90
38456;DHT22;24237;50.106;20.014;2023-04-15T03:48:23;11.20;99.90
38456;DHT22;24237;50.106;20.014;2023-04-15T03:50:49;11.20;99.90
38456;DHT22;24237;50.106;20.014;2023-04-15T03:53:15;11.20;99.90
38456;DHT22;24237;50.106;20.014;2023-04-15T03:55:40;11.20;99.90
38456;DHT22;24237;50.106;20.014;2023-04-15T03:58:06;11.20;99.90
38456;DHT22;24237;50.106;20.014;2023-04-15T04:00:32;11.40;99.90
38456;DHT22;24237;50.106;20.014;2023-04-15T04:02:57;11.30;99.90
38456;DHT22;24237;50.106;20.014;2023-04-15T04:05:23;11.20;99.90
38456;DHT22;24237;50.106;20.014;2023-04-15T04:07:49;11.20;99.90
38456;DHT22;24237;50.106;20.014;2023-04-15T04:10:15;11.20;99.90
38456;DHT22;24237;50.106;20.014;2023-04-15T04:12:40;11.20;99.90
38456;DHT22;24237;50.106;20.014;2023-04-15T04:15:06;11.30;99.90
38456;DHT22;24237;50.106;20.014;2023-04-15T04:17:32;11.50;99.90
38456;DHT22;24237;50.106;20.014;2023-04-15T04:19:58;11.60;99.90
38456;DHT22;24237;50.106;20.014;2023-04-15T04:22:24;11.60;99.90
38456;DHT22;24237;50.106;20.014;2023-04-15T04:24:50;11.50;99.90
38456;DHT22;24237;50.106;20.014;2023-04-15T04:27:15;11.60;99.90
38456;DHT22;24237;50.106;20.014;2023-04-15T04:29:41;11.40;99.90
38456;DHT22;24237;50.106;20.014;2023-04-15T04:32:07;11.40;99.90
38456;DHT22;24237;50.106;20.014;2023-04-15T04:34:33;11.50;99.90
38456;DHT22;24237;50.106;20.014;2023-04-15T04:36:58;11.80;99.90
38456;DHT22;24237;50.106;20.014;2023-04-15T04:39:25;11.60;99.90
38456;DHT22;24237;50.106;20.014;2023-04-15T04:41:50;11.60;99.90
38456;DHT22;24237;50.106;20.014;2023-04-15T04:44:19;11.50;99.90
38456;DHT22;24237;50.106;20.014;2023-04-15T04:46:44;11.50;99.90
38456;DHT22;24237;50.106;20.014;2023-04-15T04:49:10;11.40;99.90
38456;DHT22;24237;50.106;20.014;2023-04-15T04:51:36;11.40;99.90
38456;DHT22;24237;50.106;20.014;2023-04-15T04:54:01;11.40;99.90
38456;DHT22;24237;50.106;20.014;2023-04-15T04:56:27;11.50;99.90
38456;DHT22;24237;50.106;20.014;2023-04-15T04:58:53;11.70;99.90
38456;DHT22;24237;50.106;20.014;2023-04-15T05:01:18;11.80;99.90
38456;DHT22;24237;50.106;20.014;2023-04-15T05:03:44;12.00;99.90
38456;DHT22;24237;50.106;20.014;2023-04-15T05:06:10;12.20;99.90
38456;DHT22;24237;50.106;20.014;2023-04-15T05:08:35;12.10;99.90
38456;DHT22;24237;50.106;20.014;2023-04-15T05:11:02;12.30;99.90
38456;DHT22;24237;50.106;20.014;2023-04-15T05:13:28;12.20;99.90
38456;DHT22;24237;50.106;20.014;2023-04-15T05:15:54;12.30;99.90
38456;DHT22;24237;50.106;20.014;2023-04-15T05:18:20;12.30;99.90
38456;DHT22;24237;50.106;20.014;2023-04-15T05:20:46;12.50;99.90
38456;DHT22;24237;50.106;20.014;2023-04-15T05:23:11;12.70;99.90
38456;DHT22;24237;50.106;20.014;2023-04-15T05:25:38;12.80;99.90
38456;DHT22;24237;50.106;20.014;2023-04-15T05:28:04;12.80;99.90
38456;DHT22;24237;50.106;20.014;2023-04-15T05:30:30;13.00;99.90
38456;DHT22;24237;50.106;20.014;2023-04-15T05:32:55;13.00;99.90
38456;DHT22;24237;50.106;20.014;2023-04-15T05:35:21;13.10;99.90
38456;DHT22;24237;50.106;20.014;2023-04-15T05:37:47;13.40;99.90
38456;DHT22;24237;50.106;20.014;2023-04-15T05:40:13;13.60;99.90
38456;DHT22;24237;50.106;20.014;2023-04-15T05:42:39;13.70;99.90
38456;DHT22;24237;50.106;20.014;2023-04-15T05:45:06;13.50;99.90
38456;DHT22;24237;50.106;20.014;2023-04-15T05:47:34;13.40;99.90
38456;DHT22;24237;50.106;20.014;2023-04-15T05:50:00;13.30;99.90
38456;DHT22;24237;50.106;20.014;2023-04-15T05:52:25;13.40;99.90
38456;DHT22;24237;50.106;20.014;2023-04-15T05:54:51;13.40;99.90
38456;DHT22;24237;50.106;20.014;2023-04-15T05:57:17;13.30;99.90
38456;DHT22;24237;50.106;20.014;2023-04-15T05:59:43;13.30;99.90
38456;DHT22;24237;50.106;20.014;2023-04-15T06:02:09;13.30;99.90
38456;DHT22;24237;50.106;20.014;2023-04-15T06:04:35;13.50;99.90
38456;DHT22;24237;50.106;20.014;2023-04-15T06:07:01;13.70;99.90
38456;DHT22;24237;50.106;20.014;2023-04-15T06:09:27;13.80;99.90
38456;DHT22;24237;50.106;20.014;2023-04-15T06:11:53;14.00;99.90
38456;DHT22;24237;50.106;20.014;2023-04-15T06:14:19;14.10;99.90
38456;DHT22;24237;50.106;20.014;2023-04-15T06:16:45;14.10;99.90
38456;DHT22;24237;50.106;20.014;2023-04-15T06:19:10;14.10;99.90
38456;DHT22;24237;50.106;20.014;2023-04-15T06:21:37;14.10;99.90
38456;DHT22;24237;50.106;20.014;2023-04-15T06:24:03;14.20;99.90
38456;DHT22;24237;50.106;20.014;2023-04-15T06:26:29;14.30;99.90
38456;DHT22;24237;50.106;20.014;2023-04-15T06:28:55;14.30;99.90
38456;DHT22;24237;50.106;20.014;2023-04-15T06:31:21;14.20;99.90
38456;DHT22;24237;50.106;20.014;2023-04-15T06:33:48;14.20;99.90
38456;DHT22;24237;50.106;20.014;2023-04-15T06:36:14;14.10;99.90
38456;DHT22;24237;50.106;20.014;2023-04-15T06:38:40;14.40;99.90
38456;DHT22;24237;50.106;20.014;2023-04-15T06:41:06;14.20;99.90
38456;DHT22;24237;50.106;20.014;2023-04-15T06:43:31;14.20;99.90
38456;DHT22;24237;50.106;20.014;2023-04-15T06:45:57;14.10;99.90
38456;DHT22;24237;50.106;20.014;2023-04-15T06:48:23;14.20;99.90
38456;DHT22;24237;50.106;20.014;2023-04-15T06:50:49;14.40;99.90
38456;DHT22;24237;50.106;20.014;2023-04-15T06:53:15;14.20;99.90
38456;DHT22;24237;50.106;20.014;2023-04-15T06:55:40;14.20;99.90
38456;DHT22;24237;50.106;20.014;2023-04-15T06:58:06;14.20;99.90
38456;DHT22;24237;50.106;20.014;2023-04-15T07:00:32;14.20;99.90
38456;DHT22;24237;50.106;20.014;2023-04-15T07:02:59;14.20;99.90
38456;DHT22;24237;50.106;20.014;2023-04-15T07:05:28;14.00;99.90
38456;DHT22;24237;50.106;20.014;2023-04-15T07:07:54;13.70;99.90
38456;DHT22;24237;50.106;20.014;2023-04-15T07:10:20;14.00;99.90
38456;DHT22;24237;50.106;20.014;2023-04-15T07:12:47;14.30;99.90
38456;DHT22;24237;50.106;20.014;2023-04-15T07:15:13;14.60;99.90
38456;DHT22;24237;50.106;20.014;2023-04-15T07:17:40;14.80;99.90
38456;DHT22;24237;50.106;20.014;2023-04-15T07:20:07;14.80;99.90
38456;DHT22;24237;50.106;20.014;2023-04-15T07:22:33;14.90;99.90
38456;DHT22;24237;50.106;20.014;2023-04-15T07:24:59;14.80;99.90
38456;DHT22;24237;50.106;20.014;2023-04-15T07:27:25;14.60;99.90
38456;DHT22;24237;50.106;20.014;2023-04-15T07:29:51;15.10;99.90
38456;DHT22;24237;50.106;20.014;2023-04-15T07:32:18;15.00;99.90
38456;DHT22;24237;50.106;20.014;2023-04-15T07:34:44;14.90;99.90
38456;DHT22;24237;50.106;20.014;2023-04-15T07:37:10;15.00;99.90
38456;DHT22;24237;50.106;20.014;2023-04-15T07:39:35;14.90;99.90
38456;DHT22;24237;50.106;20.014;2023-04-15T07:42:01;15.00;99.90
38456;DHT22;24237;50.106;20.014;2023-04-15T07:44:31;15.10;99.90
38456;DHT22;24237;50.106;20.014;2023-04-15T07:46:57;15.10;99.90
38456;DHT22;24237;50.106;20.014;2023-04-15T07:49:23;15.30;99.90
38456;DHT22;24237;50.106;20.014;2023-04-15T07:51:48;15.60;99.90
38456;DHT22;24237;50.106;20.014;2023-04-15T07:54:15;16.20;99.90
38456;DHT22;24237;50.106;20.014;2023-04-15T07:56:40;16.20;99.90
38456;DHT22;24237;50.106;20.014;2023-04-15T07:59:06;16.40;99.90
38456;DHT22;24237;50.106;20.014;2023-04-15T08:01:33;16.70;99.90
38456;DHT22;24237;50.106;20.014;2023-04-15T08:03:59;16.90;99.90
38456;DHT22;24237;50.106;20.014;2023-04-15T08:06:25;16.70;99.90
38456;DHT22;24237;50.106;20.014;2023-04-15T08:08:51;16.80;99.90
38456;DHT22;24237;50.106;20.014;2023-04-15T08:11:19;17.00;99.90
38456;DHT22;24237;50.106;20.014;2023-04-15T08:13:45;17.40;99.90
38456;DHT22;24237;50.106;20.014;2023-04-15T08:16:24;17.50;99.90
38456;DHT22;24237;50.106;20.014;2023-04-15T08:18:50;17.30;99.90
38456;DHT22;24237;50.106;20.014;2023-04-15T08:21:17;17.20;99.90
38456;DHT22;24237;50.106;20.014;2023-04-15T08:23:44;17.30;99.90
38456;DHT22;24237;50.106;20.014;2023-04-15T08:26:10;17.50;99.90
38456;DHT22;24237;50.106;20.014;2023-04-15T08:28:40;17.10;99.90
38456;DHT22;24237;50.106;20.014;2023-04-15T08:31:07;17.20;99.90
38456;DHT22;24237;50.106;20.014;2023-04-15T08:33:33;17.50;99.90
38456;DHT22;24237;50.106;20.014;2023-04-15T08:35:58;17.70;99.90
38456;DHT22;24237;50.106;20.014;2023-04-15T08:38:24;17.70;99.90
38456;DHT22;24237;50.106;20.014;2023-04-15T08:40:50;17.80;99.90
38456;DHT22;24237;50.106;20.014;2023-04-15T08:43:23;18.20;99.90
38456;DHT22;24237;50.106;20.014;2023-04-15T08:45:51;18.40;99.90
38456;DHT22;24237;50.106;20.014;2023-04-15T08:48:17;18.20;99.90
38456;DHT22;24237;50.106;20.014;2023-04-15T08:50:44;17.80;99.90
38456;DHT22;24237;50.106;20.014;2023-04-15T08:53:11;17.70;99.90
38456;DHT22;24237;50.106;20.014;2023-04-15T08:55:44;18.00;99.90
38456;DHT22;24237;50.106;20.014;2023-04-15T08:58:11;18.10;99.20
38456;DHT22;24237;50.106;20.014;2023-04-15T09:00:38;18.10;99.40
38456;DHT22;24237;50.106;20.014;2023-04-15T09:03:05;18.20;99.80
38456;DHT22;24237;50.106;20.014;2023-04-15T09:05:32;18.00;99.60
38456;DHT22;24237;50.106;20.014;2023-04-15T09:07:59;18.20;99.50
38456;DHT22;24237;50.106;20.014;2023-04-15T09:10:25;18.70;98.60
38456;DHT22;24237;50.106;20.014;2023-04-15T09:12:50;18.70;97.60
38456;DHT22;24237;50.106;20.014;2023-04-15T09:15:16;18.60;96.70
38456;DHT22;24237;50.106;20.014;2023-04-15T09:17:45;18.40;95.30
38456;DHT22;24237;50.106;20.014;2023-04-15T09:20:15;18.50;95.10
38456;DHT22;24237;50.106;20.014;2023-04-15T09:22:42;18.70;94.90
38456;DHT22;24237;50.106;20.014;2023-04-15T09:27:52;19.40;92.80
38456;DHT22;24237;50.106;20.014;2023-04-15T09:30:18;19.50;94.10
38456;DHT22;24237;50.106;20.014;2023-04-15T09:32:57;19.20;94.90
38456;DHT22;24237;50.106;20.014;2023-04-15T09:35:25;19.00;94.30
38456;DHT22;24237;50.106;20.014;2023-04-15T09:37:52;18.40;94.70
38456;DHT22;24237;50.106;20.014;2023-04-15T09:40:31;18.60;94.70
38456;DHT22;24237;50.106;20.014;2023-04-15T09:42:58;19.00;95.00
38456;DHT22;24237;50.106;20.014;2023-04-15T09:45:24;19.10;95.40
38456;DHT22;24237;50.106;20.014;2023-04-15T09:47:50;17.90;96.30
38456;DHT22;24237;50.106;20.014;2023-04-15T09:50:16;17.70;96.90
38456;DHT22;24237;50.106;20.014;2023-04-15T09:52:43;18.20;96.30
38456;DHT22;24237;50.106;20.014;2023-04-15T09:55:09;18.00;96.80
38456;DHT22;24237;50.106;20.014;2023-04-15T09:57:36;18.00;96.50
38456;DHT22;24237;50.106;20.014;2023-04-15T10:00:06;17.70;96.70
38456;DHT22;24237;50.106;20.014;2023-04-15T10:02:33;17.40;97.30
38456;DHT22;24237;50.106;20.014;2023-04-15T10:05:00;17.60;97.40
38456;DHT22;24237;50.106;20.014;2023-04-15T10:07:26;17.70;96.10
38456;DHT22;24237;50.106;20.014;2023-04-15T10:09:52;17.40;96.80
38456;DHT22;24237;50.106;20.014;2023-04-15T10:12:19;17.80;96.40
38456;DHT22;24237;50.106;20.014;2023-04-15T10:14:51;18.40;96.70
38456;DHT22;24237;50.106;20.014;2023-04-15T10:17:21;18.60;95.40
38456;DHT22;24237;50.106;20.014;2023-04-15T10:19:47;19.00;95.60
38456;DHT22;24237;50.106;20.014;2023-04-15T10:22:14;19.30;95.00
38456;DHT22;24237;50.106;20.014;2023-04-15T10:24:39;19.10;94.90
38456;DHT22;24237;50.106;20.014;2023-04-15T10:27:06;19.20;95.00
38456;DHT22;24237;50.106;20.014;2023-04-15T10:29:32;19.10;94.60
38456;DHT22;24237;50.106;20.014;2023-04-15T10:31:58;19.30;94.10
38456;DHT22;24237;50.106;20.014;2023-04-15T10:34:25;19.40;93.70
38456;DHT22;24237;50.106;20.014;2023-04-15T10:36:54;19.20;94.10
38456;DHT22;24237;50.106;20.014;2023-04-15T10:39:40;19.00;94.40
38456;DHT22;24237;50.106;20.014;2023-04-15T10:42:09;18.10;94.90
38456;DHT22;24237;50.106;20.014;2023-04-15T10:44:36;17.70;95.30
38456;DHT22;24237;50.106;20.014;2023-04-15T10:47:05;17.70;95.80
38456;DHT22;24237;50.106;20.014;2023-04-15T10:49:31;18.00;95.90
38456;DHT22;24237;50.106;20.014;2023-04-15T10:51:58;18.70;95.20
38456;DHT22;24237;50.106;20.014;2023-04-15T10:59:31;18.10;95.30
38456;DHT22;24237;50.106;20.014;2023-04-15T11:02:11;18.00;95.80
38456;DHT22;24237;50.106;20.014;2023-04-15T11:04:54;17.70;96.20
38456;DHT22;24237;50.106;20.014;2023-04-15T11:12:49;17.80;95.70
38456;DHT22;24237;50.106;20.014;2023-04-15T11:15:45;17.90;96.20
38456;DHT22;24237;50.106;20.014;2023-04-15T11:18:15;18.40;95.50
38456;DHT22;24237;50.106;20.014;2023-04-15T11:20:43;18.80;94.60
38456;DHT22;24237;50.106;20.014;2023-04-15T11:23:16;18.70;94.50
38456;DHT22;24237;50.106;20.014;2023-04-15T11:25:43;18.70;94.80
38456;DHT22;24237;50.106;20.014;2023-04-15T11:28:09;18.60;94.60
38456;DHT22;24237;50.106;20.014;2023-04-15T11:30:37;18.30;95.00
38456;DHT22;24237;50.106;20.014;2023-04-15T11:33:09;18.70;95.10
38456;DHT22;24237;50.106;20.014;2023-04-15T11:35:36;19.10;94.20
38456;DHT22;24237;50.106;20.014;2023-04-15T11:38:08;19.20;94.50
38456;DHT22;24237;50.106;20.014;2023-04-15T11:40:34;18.70;94.70
38456;DHT22;24237;50.106;20.014;2023-04-15T11:43:20;18.10;95.20
38456;DHT22;24237;50.106;20.014;2023-04-15T11:48:18;18.20;94.70
38456;DHT22;24237;50.106;20.014;2023-04-15T11:50:44;17.80;95.30
38456;DHT22;24237;50.106;20.014;2023-04-15T11:53:11;17.80;95.90
38456;DHT22;24237;50.106;20.014;2023-04-15T11:55:45;17.70;95.40
38456;DHT22;24237;50.106;20.014;2023-04-15T11:58:15;17.30;96.10
38456;DHT22;24237;50.106;20.014;2023-04-15T12:00:49;17.70;96.50
38456;DHT22;24237;50.106;20.014;2023-04-15T12:11:51;18.60;94.20
38456;DHT22;24237;50.106;20.014;2023-04-15T12:14:27;18.30;94.40
38456;DHT22;24237;50.106;20.014;2023-04-15T12:16:59;18.20;94.70
38456;DHT22;24237;50.106;20.014;2023-04-15T12:19:26;17.90;94.70
38456;DHT22;24237;50.106;20.014;2023-04-15T12:21:57;17.70;95.10
38456;DHT22;24237;50.106;20.014;2023-04-15T12:24:23;17.30;95.40
38456;DHT22;24237;50.106;20.014;2023-04-15T12:26:54;17.50;95.40
38456;DHT22;24237;50.106;20.014;2023-04-15T12:29:25;17.70;95.00
38456;DHT22;24237;50.106;20.014;2023-04-15T12:32:03;18.30;93.70
38456;DHT22;24237;50.106;20.014;2023-04-15T12:34:31;18.50;93.80
38456;DHT22;24237;50.106;20.014;2023-04-15T12:37:01;20.00;92.80
38456;DHT22;24237;50.106;20.014;2023-04-15T12:39:29;22.10;91.70
38456;DHT22;24237;50.106;20.014;2023-04-15T12:41:55;23.60;89.30
38456;DHT22;24237;50.106;20.014;2023-04-15T12:44:22;24.00;86.80
38456;DHT22;24237;50.106;20.014;2023-04-15T12:46:49;23.30;85.30
38456;DHT22;24237;50.106;20.014;2023-04-15T12:49:14;23.50;84.00
38456;DHT22;24237;50.106;20.014;2023-04-15T12:51:41;23.60;83.30
38456;DHT22;24237;50.106;20.014;2023-04-15T12:54:06;23.80;82.20
38456;DHT22;24237;50.106;20.014;2023-04-15T12:56:32;23.90;82.60
38456;DHT22;24237;50.106;20.014;2023-04-15T12:58:57;22.90;80.60
38456;DHT22;24237;50.106;20.014;2023-04-15T13:01:23;22.30;81.90
38456;DHT22;24237;50.106;20.014;2023-04-15T13:03:49;21.90;82.20
38456;DHT22;24237;50.106;20.014;2023-04-15T13:06:15;21.80;83.10
38456;DHT22;24237;50.106;20.014;2023-04-15T13:08:41;21.60;83.60
38456;DHT22;24237;50.106;20.014;2023-04-15T13:11:07;21.30;82.60
38456;DHT22;24237;50.106;20.014;2023-04-15T13:13:33;20.90;82.60
38456;DHT22;24237;50.106;20.014;2023-04-15T13:15:59;20.00;84.00
38456;DHT22;24237;50.106;20.014;2023-04-15T13:18:25;20.10;85.10
38456;DHT22;24237;50.106;20.014;2023-04-15T13:20:50;20.00;85.60
38456;DHT22;24237;50.106;20.014;2023-04-15T13:23:16;19.60;86.70
38456;DHT22;24237;50.106;20.014;2023-04-15T13:25:42;19.00;86.90
38456;DHT22;24237;50.106;20.014;2023-04-15T13:28:09;18.70;87.80
38456;DHT22;24237;50.106;20.014;2023-04-15T13:30:37;18.60;89.40
38456;DHT22;24237;50.106;20.014;2023-04-15T13:33:03;18.40;90.00
38456;DHT22;24237;50.106;20.014;2023-04-15T13:35:28;18.60;90.30
38456;DHT22;24237;50.106;20.014;2023-04-15T13:37:54;18.70;89.00
38456;DHT22;24237;50.106;20.014;2023-04-15T13:40:20;19.40;87.40
38456;DHT22;24237;50.106;20.014;2023-04-15T13:42:46;19.90;86.80
38456;DHT22;24237;50.106;20.014;2023-04-15T13:45:11;21.60;84.20
38456;DHT22;24237;50.106;20.014;2023-04-15T13:47:37;23.30;81.40
38456;DHT22;24237;50.106;20.014;2023-04-15T13:50:04;24.30;78.50
38456;DHT22;24237;50.106;20.014;2023-04-15T13:52:29;23.90;76.80
38456;DHT22;24237;50.106;20.014;2023-04-15T13:54:55;24.50;76.70
38456;DHT22;24237;50.106;20.014;2023-04-15T13:57:21;25.10;75.50
38456;DHT22;24237;50.106;20.014;2023-04-15T13:59:46;25.50;73.50
38456;DHT22;24237;50.106;20.014;2023-04-15T14:02:12;25.40;73.00
38456;DHT22;24237;50.106;20.014;2023-04-15T14:04:38;26.10;73.00
38456;DHT22;24237;50.106;20.014;2023-04-15T14:07:03;26.30;70.20
38456;DHT22;24237;50.106;20.014;2023-04-15T14:09:30;25.80;69.70
38456;DHT22;24237;50.106;20.014;2023-04-15T14:11:55;25.80;70.70
38456;DHT22;24237;50.106;20.014;2023-04-15T14:14:21;26.00;69.70
38456;DHT22;24237;50.106;20.014;2023-04-15T14:16:47;26.70;69.30
38456;DHT22;24237;50.106;20.014;2023-04-15T14:19:13;26.10;69.70
38456;DHT22;24237;50.106;20.014;2023-04-15T14:21:39;25.80;69.90
38456;DHT22;24237;50.106;20.014;2023-04-15T14:24:05;26.30;68.80
38456;DHT22;24237;50.106;20.014;2023-04-15T14:26:31;25.40;69.10
38456;DHT22;24237;50.106;20.014;2023-04-15T14:28:56;25.00;69.40
38456;DHT22;24237;50.106;20.014;2023-04-15T14:31:22;24.10;71.90
38456;DHT22;24237;50.106;20.014;2023-04-15T14:33:48;23.00;71.20
38456;DHT22;24237;50.106;20.014;2023-04-15T14:36:14;22.70;72.30
38456;DHT22;24237;50.106;20.014;2023-04-15T14:38:39;21.90;74.70
38456;DHT22;24237;50.106;20.014;2023-04-15T14:41:05;21.30;79.40
38456;DHT22;24237;50.106;20.014;2023-04-15T14:43:32;20.60;80.80
38456;DHT22;24237;50.106;20.014;2023-04-15T14:45:58;20.60;81.10
38456;DHT22;24237;50.106;20.014;2023-04-15T14:48:24;20.40;81.60
38456;DHT22;24237;50.106;20.014;2023-04-15T14:50:53;19.60;82.20
38456;DHT22;24237;50.106;20.014;2023-04-15T14:53:18;20.10;81.80
38456;DHT22;24237;50.106;20.014;2023-04-15T14:55:44;20.90;81.00
38456;DHT22;24237;50.106;20.014;2023-04-15T14:58:10;21.80;79.10
38456;DHT22;24237;50.106;20.014;2023-04-15T15:00:38;22.10;77.40
38456;DHT22;24237;50.106;20.014;2023-04-15T15:03:09;21.70;77.70
38456;DHT22;24237;50.106;20.014;2023-04-15T15:05:44;20.90;79.50
38456;DHT22;24237;50.106;20.014;2023-04-15T15:08:11;20.20;82.50
38456;DHT22;24237;50.106;20.014;2023-04-15T15:10:38;19.80;83.50
38456;DHT22;24237;50.106;20.014;2023-04-15T15:13:05;20.40;83.60
38456;DHT22;24237;50.106;20.014;2023-04-15T15:15:33;21.50;81.90
38456;DHT22;24237;50.106;20.014;2023-04-15T15:17:59;22.20;82.20
38456;DHT22;24237;50.106;20.014;2023-04-15T15:20:25;22.40;80.10
38456;DHT22;24237;50.106;20.014;2023-04-15T15:22:51;22.50;80.10
38456;DHT22;24237;50.106;20.014;2023-04-15T15:25:17;22.80;79.90
38456;DHT22;24237;50.106;20.014;2023-04-15T15:27:43;22.30;79.80
38456;DHT22;24237;50.106;20.014;2023-04-15T15:30:09;21.80;79.60
38456;DHT22;24237;50.106;20.014;2023-04-15T15:32:38;21.00;81.50
38456;DHT22;24237;50.106;20.014;2023-04-15T15:35:04;20.50;82.80
38456;DHT22;24237;50.106;20.014;2023-04-15T15:37:30;20.00;84.20